createdAt,value
2022-12-01T00:03:17.725Z,14.23
2022-12-01T00:08:19.721Z,16.77
2022-12-01T00:13:21.515Z,14.73
2022-12-01T00:18:23.212Z,14.10
2022-12-01T00:23:25.026Z,14.90
2022-12-01T00:28:26.651Z,14.55
2022-12-01T00:33:28.604Z,13.77
2022-12-01T00:38:30.369Z,15.15
2022-12-01T00:43:32.248Z,15.50
2022-12-01T00:48:33.884Z,15.73
2022-12-01T00:53:35.599Z,14.20
2022-12-01T00:58:37.337Z,15.43
2022-12-01T01:03:39.035Z,15.27
2022-12-01T01:08:40.884Z,14.77
2022-12-01T01:13:42.583Z,14.70
2022-12-01T01:18:44.746Z,14.65
2022-12-01T01:23:47.098Z,15.27
2022-12-01T01:28:49.106Z,13.48
2022-12-01T01:33:51.210Z,15.32
2022-12-01T01:38:53.385Z,14.20
2022-12-01T01:44:00.117Z,16.30
2022-12-01T01:49:08.310Z,14.30
2022-12-01T01:54:17.450Z,14.02
2022-12-01T01:59:26.050Z,15.32
2022-12-01T02:04:28.996Z,12.80
2022-12-01T02:09:30.663Z,13.30
2022-12-01T02:14:41.429Z,14.10
2022-12-01T02:19:46.144Z,13.00
2022-12-01T02:25:17.744Z,14.05
2022-12-01T02:30:47.703Z,13.98
2022-12-01T02:35:56.186Z,13.50
2022-12-01T02:41:04.877Z,11.85
2022-12-01T02:46:13.785Z,14.82
2022-12-01T02:51:35.478Z,13.27
2022-12-01T02:56:37.074Z,11.95
2022-12-01T03:02:00.258Z,12.85
2022-12-01T03:07:24.815Z,14.48
2022-12-01T03:12:44.803Z,12.00
2022-12-01T03:22:54.974Z,12.85
2022-12-01T03:28:20.679Z,14.13
2022-12-01T03:33:39.857Z,13.75
2022-12-01T03:38:45.561Z,14.13
2022-12-01T03:43:53.639Z,14.32
2022-12-01T03:48:55.594Z,14.55
2022-12-01T03:54:10.342Z,16.13
2022-12-01T03:59:13.276Z,13.82
2022-12-01T04:04:15.386Z,16.13
2022-12-01T04:09:17.246Z,14.70
2022-12-01T04:14:18.895Z,13.90
2022-12-01T04:19:20.620Z,15.38
2022-12-01T04:24:22.352Z,12.95
2022-12-01T04:29:23.962Z,15.07
2022-12-01T04:34:25.661Z,14.57
2022-12-01T04:39:27.383Z,17.58
2022-12-01T04:44:34.496Z,16.58
2022-12-01T04:49:37.348Z,16.75
2022-12-01T04:54:38.989Z,14.25
2022-12-01T04:59:40.623Z,16.35
2022-12-01T05:04:42.304Z,15.90
2022-12-01T05:09:44.022Z,15.27
2022-12-01T05:14:45.933Z,14.73
2022-12-01T05:20:06.112Z,13.75
2022-12-01T05:25:08.215Z,14.55
2022-12-01T05:30:10.636Z,15.52
2022-12-01T05:35:12.834Z,14.52
2022-12-01T05:40:14.486Z,14.52
2022-12-01T05:45:16.377Z,17.50
2022-12-01T05:50:18.112Z,15.50
2022-12-01T05:55:19.916Z,15.93
2022-12-01T06:00:21.619Z,13.30
2022-12-01T06:05:23.300Z,16.10
2022-12-01T06:10:24.977Z,15.30
2022-12-01T06:15:27.253Z,14.05
2022-12-01T06:20:28.905Z,16.23
2022-12-01T06:25:30.961Z,16.40
2022-12-01T06:30:32.623Z,15.82
2022-12-01T06:35:35.197Z,15.25
2022-12-01T06:40:36.901Z,14.85
2022-12-01T06:45:38.597Z,16.20
2022-12-01T06:50:40.936Z,15.13
2022-12-01T06:55:42.552Z,15.00
2022-12-01T07:00:47.734Z,15.13
2022-12-01T07:06:01.163Z,15.30
2022-12-01T07:11:08.300Z,16.42
2022-12-01T07:16:10.135Z,16.75
2022-12-01T07:21:14.107Z,20.00
2022-12-01T07:26:17.894Z,17.45
2022-12-01T07:31:22.719Z,16.23
2022-12-01T07:36:24.463Z,16.63
2022-12-01T07:41:26.114Z,19.02
2022-12-01T07:46:28.343Z,17.58
2022-12-01T07:51:30.011Z,16.08
2022-12-01T07:56:32.159Z,16.88
2022-12-01T08:01:33.927Z,18.63
2022-12-01T08:06:35.642Z,18.45
2022-12-01T08:11:37.339Z,18.80
2022-12-01T08:16:39.006Z,19.70
2022-12-01T08:21:40.990Z,19.00
2022-12-01T08:26:45.674Z,20.02
2022-12-01T08:31:47.629Z,17.00
2022-12-01T08:36:49.292Z,16.55
2022-12-01T08:41:50.983Z,16.80
2022-12-01T08:46:52.721Z,20.80
2022-12-01T08:51:56.306Z,18.65
2022-12-01T08:56:58.394Z,19.02
2022-12-01T09:02:05.365Z,17.23
2022-12-01T09:07:10.412Z,19.02
2022-12-01T09:12:12.910Z,18.33
2022-12-01T09:17:15.865Z,19.67
2022-12-01T09:22:17.532Z,19.25
2022-12-01T09:27:19.293Z,19.33
2022-12-01T09:32:20.923Z,20.60
2022-12-01T09:37:22.549Z,15.98
2022-12-01T09:42:30.897Z,16.48
2022-12-01T09:47:37.123Z,19.23
2022-12-01T09:52:44.905Z,19.48
2022-12-01T09:57:52.154Z,19.85
2022-12-01T10:08:02.164Z,20.52
2022-12-01T10:13:15.576Z,18.92
2022-12-01T10:23:47.960Z,17.55
2022-12-01T10:28:49.947Z,17.40
2022-12-01T10:34:01.033Z,19.05
2022-12-01T10:39:04.932Z,20.02
2022-12-01T10:44:07.086Z,17.15
2022-12-01T10:49:14.349Z,17.98
2022-12-01T10:54:16.618Z,17.30
2022-12-01T10:59:32.017Z,18.80
2022-12-01T11:04:45.716Z,17.25
2022-12-01T11:09:59.320Z,18.50
2022-12-01T11:20:24.547Z,18.48
2022-12-01T11:25:26.235Z,18.50
2022-12-01T11:30:30.204Z,17.92
2022-12-01T11:35:34.750Z,17.00
2022-12-01T11:40:50.138Z,18.85
2022-12-01T11:45:52.180Z,18.73
2022-12-01T11:51:10.979Z,18.60
2022-12-01T11:56:12.622Z,17.95
2022-12-01T12:01:22.071Z,16.17
2022-12-01T12:06:39.908Z,18.38
2022-12-01T12:11:47.856Z,16.45
2022-12-01T12:22:42.779Z,16.73
2022-12-01T12:27:58.824Z,19.17
2022-12-01T12:33:25.454Z,17.92
2022-12-01T12:38:46.323Z,17.30
2022-12-01T12:44:13.478Z,17.55
2022-12-01T12:49:25.951Z,16.65
2022-12-01T12:54:37.084Z,19.45
2022-12-01T12:59:40.460Z,16.33
2022-12-01T13:04:54.349Z,18.77
2022-12-01T13:10:01.098Z,18.00
2022-12-01T13:15:11.998Z,20.05
2022-12-01T13:20:17.592Z,18.88
2022-12-01T13:25:38.182Z,19.02
2022-12-01T13:30:39.856Z,17.10
2022-12-01T13:35:41.517Z,19.85
2022-12-01T13:40:43.165Z,20.23
2022-12-01T13:45:44.966Z,17.33
2022-12-01T13:51:03.648Z,17.33
2022-12-01T13:56:08.430Z,19.13
2022-12-01T14:01:23.123Z,17.33
2022-12-01T14:06:30.801Z,19.88
2022-12-01T14:11:34.016Z,18.92
2022-12-01T14:16:50.906Z,18.75
2022-12-01T14:21:52.641Z,19.10
2022-12-01T14:26:54.866Z,16.52
2022-12-01T14:32:02.386Z,19.77
2022-12-01T14:37:11.761Z,18.55
2022-12-01T14:42:40.036Z,20.63
2022-12-01T14:47:49.877Z,20.13
2022-12-01T14:53:19.847Z,18.33
2022-12-01T14:58:24.350Z,18.55
2022-12-01T15:03:32.135Z,18.17
2022-12-01T15:08:53.280Z,19.83
2022-12-01T15:13:57.927Z,18.75
2022-12-01T15:18:59.552Z,19.40
2022-12-01T15:24:02.448Z,19.13
2022-12-01T15:29:45.543Z,16.48
2022-12-01T15:34:49.703Z,16.73
2022-12-01T15:40:00.816Z,19.45
2022-12-01T15:45:16.742Z,18.13
2022-12-01T15:50:44.490Z,17.58
2022-12-01T15:55:51.796Z,17.45
2022-12-01T16:01:11.464Z,16.55
2022-12-01T16:06:13.163Z,15.32
2022-12-01T16:11:17.689Z,18.45
2022-12-01T16:16:28.788Z,17.80
2022-12-01T16:22:11.938Z,16.67
2022-12-01T16:27:18.500Z,18.15
2022-12-01T16:32:23.466Z,16.75
2022-12-01T16:37:26.555Z,14.50
2022-12-01T16:42:28.222Z,16.70
2022-12-01T16:47:31.724Z,15.90
2022-12-01T16:52:44.123Z,16.90
2022-12-01T16:57:46.483Z,17.17
2022-12-01T17:02:48.198Z,16.23
2022-12-01T17:07:50.360Z,15.95
2022-12-01T17:12:52.159Z,15.32
2022-12-01T17:17:53.837Z,18.45
2022-12-01T17:22:55.676Z,17.55
2022-12-01T17:27:57.343Z,17.85
2022-12-01T17:32:58.988Z,15.85
2022-12-01T17:38:00.630Z,16.77
2022-12-01T17:43:02.257Z,17.63
2022-12-01T17:48:04.053Z,16.70
2022-12-01T17:53:05.740Z,17.20
2022-12-01T17:58:07.357Z,16.67
2022-12-01T18:03:09.031Z,17.80
2022-12-01T18:08:10.808Z,17.52
2022-12-01T18:13:12.433Z,18.15
2022-12-01T18:18:14.064Z,17.48
2022-12-01T18:23:15.743Z,15.50
2022-12-01T18:28:17.529Z,19.98
2022-12-01T18:33:20.961Z,15.27
2022-12-01T18:38:24.918Z,19.10
2022-12-01T18:43:28.755Z,18.52
2022-12-01T18:48:30.949Z,17.55
2022-12-01T18:53:32.993Z,17.52
2022-12-01T18:58:35.148Z,18.08
2022-12-01T19:03:36.946Z,17.58
2022-12-01T19:08:39.511Z,18.83
2022-12-01T19:13:42.558Z,17.88
2022-12-01T19:18:44.395Z,17.95
2022-12-01T19:23:46.943Z,19.63
2022-12-01T19:28:49.004Z,16.83
2022-12-01T19:33:53.001Z,17.48
2022-12-01T19:38:57.604Z,18.60
2022-12-01T19:43:59.946Z,17.13
2022-12-01T19:49:02.113Z,17.48
2022-12-01T19:54:05.356Z,17.30
2022-12-01T19:59:08.014Z,18.92
2022-12-01T20:04:09.651Z,18.85
2022-12-01T20:09:11.471Z,19.50
2022-12-01T20:14:13.209Z,16.92
2022-12-01T20:19:15.120Z,16.50
2022-12-01T20:24:19.915Z,18.45
2022-12-01T20:29:24.188Z,17.27
2022-12-01T20:34:36.129Z,17.30
2022-12-01T20:39:41.325Z,18.30
2022-12-01T20:44:43.760Z,18.23
2022-12-01T20:49:45.688Z,18.50
2022-12-01T20:54:47.489Z,16.05
2022-12-01T20:59:49.236Z,18.35
2022-12-01T21:04:56.391Z,18.60
2022-12-01T21:10:00.860Z,17.92
2022-12-01T21:15:05.500Z,16.33
2022-12-01T21:20:40.597Z,18.15
2022-12-01T21:25:42.986Z,16.83
2022-12-01T21:30:46.207Z,19.33
2022-12-01T21:35:51.408Z,18.30
2022-12-01T21:40:53.297Z,16.77
2022-12-01T21:46:11.290Z,16.10
2022-12-01T21:51:19.533Z,17.60
2022-12-01T21:56:25.901Z,16.77
2022-12-01T22:01:32.316Z,17.42
2022-12-01T22:06:46.669Z,19.15
2022-12-01T22:11:52.869Z,17.15
2022-12-01T22:17:20.940Z,15.73
2022-12-01T22:22:25.769Z,17.98
2022-12-01T22:27:28.954Z,18.30
2022-12-01T22:32:54.212Z,17.90
2022-12-01T22:38:20.719Z,18.10
2022-12-01T22:43:32.659Z,17.58
2022-12-01T22:48:46.444Z,18.85
2022-12-01T22:53:48.806Z,19.02
2022-12-01T22:58:50.432Z,19.20
2022-12-01T23:04:08.122Z,17.73
2022-12-01T23:09:13.649Z,15.85
2022-12-01T23:14:18.740Z,17.77
2022-12-01T23:19:20.364Z,17.20
2022-12-01T23:24:22.035Z,19.30
2022-12-01T23:29:23.856Z,18.52
2022-12-01T23:34:25.693Z,17.30
2022-12-01T23:39:32.522Z,17.20
2022-12-01T23:44:42.210Z,16.90
2022-12-01T23:49:45.295Z,18.10
2022-12-01T23:54:47.008Z,17.00
2022-12-01T23:59:49.688Z,17.38
